createdAt,value
2023-01-19T00:01:12.700Z,0.00
2023-01-19T00:03:39.245Z,0.00
2023-01-19T00:06:05.780Z,0.00
2023-01-19T00:08:32.424Z,0.00
2023-01-19T00:10:58.955Z,0.00
2023-01-19T00:13:25.442Z,0.00
2023-01-19T00:15:51.971Z,0.00
2023-01-19T00:18:18.683Z,0.00
2023-01-19T00:20:45.205Z,0.10
2023-01-19T00:23:11.708Z,0.00
2023-01-19T00:25:44.397Z,0.10
2023-01-19T00:28:10.904Z,0.10
2023-01-19T00:30:37.408Z,0.10
2023-01-19T00:33:04.254Z,0.00
2023-01-19T00:35:30.800Z,0.00
2023-01-19T00:37:57.339Z,0.00
2023-01-19T00:40:23.863Z,0.00
2023-01-19T00:42:50.364Z,0.00
2023-01-19T00:45:18.444Z,0.00
2023-01-19T00:47:44.944Z,0.00
2023-01-19T00:50:14.471Z,0.00
2023-01-19T00:52:41.004Z,0.00
2023-01-19T00:55:07.528Z,0.00
2023-01-19T00:57:34.046Z,0.00
2023-01-19T01:00:00.817Z,0.00
2023-01-19T01:02:27.412Z,-0.10
2023-01-19T01:04:56.697Z,-0.10
2023-01-19T01:07:23.259Z,-0.10
2023-01-19T01:09:49.852Z,-0.10
2023-01-19T01:12:16.358Z,-0.10
2023-01-19T01:14:42.931Z,-0.10
2023-01-19T01:17:11.304Z,-0.10
2023-01-19T01:19:38.240Z,-0.10
2023-01-19T01:22:05.372Z,-0.10
2023-01-19T01:24:32.002Z,-0.10
2023-01-19T01:26:58.482Z,-0.10
2023-01-19T01:29:24.977Z,-0.10
2023-01-19T01:31:51.557Z,0.00
2023-01-19T01:34:18.110Z,-0.10
2023-01-19T01:36:44.683Z,-0.10
2023-01-19T01:39:11.166Z,0.00
2023-01-19T01:41:37.654Z,0.00
2023-01-19T01:44:08.181Z,0.00
2023-01-19T01:46:34.730Z,0.00
2023-01-19T01:49:01.234Z,0.00
2023-01-19T01:51:27.780Z,0.00
2023-01-19T01:53:54.619Z,0.00
2023-01-19T01:56:21.107Z,0.00
2023-01-19T01:58:47.625Z,0.00
2023-01-19T02:01:33.022Z,0.00
2023-01-19T02:03:59.736Z,0.00
2023-01-19T02:06:26.215Z,0.00
2023-01-19T02:09:11.524Z,0.10
2023-01-19T02:11:56.659Z,0.10
2023-01-19T02:14:23.201Z,0.10
2023-01-19T02:16:49.693Z,0.10
2023-01-19T02:19:16.242Z,0.10
2023-01-19T02:21:42.937Z,0.10
2023-01-19T02:24:09.446Z,0.10
2023-01-19T02:26:35.988Z,0.10
2023-01-19T02:29:02.534Z,0.10
2023-01-19T02:31:29.063Z,0.10
2023-01-19T02:33:55.566Z,0.10
2023-01-19T02:36:22.055Z,0.10
2023-01-19T02:38:48.607Z,0.10
2023-01-19T02:41:15.112Z,0.10
2023-01-19T02:43:43.963Z,0.10
2023-01-19T02:46:10.444Z,0.10
2023-01-19T02:48:36.973Z,0.10
2023-01-19T02:51:04.542Z,0.20
2023-01-19T02:53:31.105Z,0.20
2023-01-19T02:55:57.922Z,0.20
2023-01-19T02:58:24.429Z,0.20
2023-01-19T03:00:50.961Z,0.20
2023-01-19T03:03:17.449Z,0.20
2023-01-19T03:05:43.986Z,0.20
2023-01-19T03:08:10.538Z,0.20
2023-01-19T03:10:37.083Z,0.20
2023-01-19T03:13:04.121Z,0.20
2023-01-19T03:15:30.870Z,0.20
2023-01-19T03:17:57.473Z,0.20
2023-01-19T03:20:25.327Z,0.20
2023-01-19T03:22:51.852Z,0.10
2023-01-19T03:25:18.365Z,0.10
2023-01-19T03:27:44.838Z,0.10
2023-01-19T03:30:11.311Z,0.10
2023-01-19T03:32:37.847Z,0.10
2023-01-19T03:35:04.355Z,0.10
2023-01-19T03:37:30.857Z,0.10
2023-01-19T03:39:57.392Z,0.10
2023-01-19T03:42:23.866Z,0.10
2023-01-19T03:44:51.205Z,0.10
2023-01-19T03:47:17.721Z,0.20
2023-01-19T03:49:44.268Z,0.20
2023-01-19T03:52:10.808Z,0.20
2023-01-19T03:54:37.313Z,0.20
2023-01-19T03:57:04.091Z,0.30
2023-01-19T03:59:30.598Z,0.30
2023-01-19T04:01:57.108Z,0.30
2023-01-19T04:04:25.367Z,0.30
2023-01-19T04:06:51.853Z,0.40
2023-01-19T04:09:19.994Z,0.40
2023-01-19T04:11:46.643Z,0.30
2023-01-19T04:14:13.736Z,0.30
2023-01-19T04:16:40.240Z,0.30
2023-01-19T04:19:06.814Z,0.30
2023-01-19T04:21:33.354Z,0.30
2023-01-19T04:23:59.843Z,0.30
2023-01-19T04:26:26.351Z,0.30
2023-01-19T04:28:53.029Z,0.30
2023-01-19T04:31:19.666Z,0.30
2023-01-19T04:33:46.212Z,0.40
2023-01-19T04:36:12.753Z,0.30
2023-01-19T04:38:39.325Z,0.30
2023-01-19T04:41:05.870Z,0.30
2023-01-19T04:43:32.445Z,0.30
2023-01-19T04:45:59.157Z,0.30
2023-01-19T04:48:25.744Z,0.40
2023-01-19T04:50:52.534Z,0.40
2023-01-19T04:53:19.011Z,0.40
2023-01-19T04:55:46.539Z,0.40
2023-01-19T04:58:13.058Z,0.40
2023-01-19T05:00:39.562Z,0.40
2023-01-19T05:03:06.436Z,0.40
2023-01-19T05:05:33.118Z,0.40
2023-01-19T05:07:59.605Z,0.50
2023-01-19T05:10:26.267Z,0.50
2023-01-19T05:12:52.781Z,0.50
2023-01-19T05:15:19.357Z,0.50
2023-01-19T05:17:45.869Z,0.50
2023-01-19T05:20:14.998Z,0.50
2023-01-19T05:22:42.516Z,0.50
2023-01-19T05:25:09.031Z,0.50
2023-01-19T05:27:35.504Z,0.50
2023-01-19T05:30:02.079Z,0.40
2023-01-19T05:32:28.580Z,0.40
2023-01-19T05:34:55.095Z,0.40
2023-01-19T05:37:21.652Z,0.40
2023-01-19T05:39:48.133Z,0.30
2023-01-19T05:42:14.706Z,0.30
2023-01-19T05:44:41.213Z,0.30
2023-01-19T05:47:07.758Z,0.30
2023-01-19T05:49:35.305Z,0.20
2023-01-19T05:52:01.941Z,0.10
2023-01-19T05:54:28.451Z,0.00
2023-01-19T05:56:54.965Z,0.00
2023-01-19T05:59:24.086Z,-0.10
2023-01-19T06:01:50.776Z,-0.10
2023-01-19T06:04:17.289Z,-0.10
2023-01-19T06:06:44.430Z,-0.10
2023-01-19T06:09:11.231Z,-0.10
2023-01-19T06:11:37.780Z,-0.10
2023-01-19T06:14:04.255Z,-0.10
2023-01-19T06:16:30.788Z,-0.10
2023-01-19T06:18:57.314Z,-0.20
2023-01-19T06:21:24.033Z,-0.20
2023-01-19T06:23:50.592Z,-0.20
2023-01-19T06:26:17.111Z,-0.20
2023-01-19T06:28:43.657Z,-0.20
2023-01-19T06:31:10.203Z,-0.30
2023-01-19T06:33:36.735Z,-0.20
2023-01-19T06:36:03.649Z,-0.20
2023-01-19T06:38:30.174Z,-0.20
2023-01-19T06:40:58.489Z,-0.20
2023-01-19T06:43:25.032Z,-0.20
2023-01-19T06:45:51.745Z,-0.20
2023-01-19T06:48:18.345Z,-0.10
2023-01-19T06:50:44.850Z,-0.10
2023-01-19T06:53:12.194Z,-0.10
2023-01-19T06:55:39.147Z,-0.10
2023-01-19T06:58:06.881Z,-0.10
2023-01-19T07:00:33.384Z,-0.10
2023-01-19T07:03:00.338Z,-0.10
2023-01-19T07:05:27.018Z,-0.20
2023-01-19T07:07:53.606Z,-0.20
2023-01-19T07:10:20.124Z,-0.20
2023-01-19T07:12:47.345Z,-0.20
2023-01-19T07:15:14.600Z,-0.20
2023-01-19T07:17:42.111Z,-0.20
2023-01-19T07:20:08.660Z,-0.20
2023-01-19T07:22:35.156Z,-0.20
2023-01-19T07:25:01.744Z,-0.20
2023-01-19T07:27:28.550Z,-0.20
2023-01-19T07:29:55.108Z,-0.20
2023-01-19T07:32:21.613Z,-0.20
2023-01-19T07:34:48.124Z,-0.10
2023-01-19T07:37:15.256Z,-0.10
2023-01-19T07:39:41.732Z,-0.10
2023-01-19T07:42:08.326Z,-0.10
2023-01-19T07:44:34.823Z,-0.10
2023-01-19T07:47:01.328Z,-0.10
2023-01-19T07:49:27.841Z,-0.10
2023-01-19T07:51:56.353Z,0.00
2023-01-19T07:54:22.855Z,0.00
2023-01-19T07:56:49.353Z,0.00
2023-01-19T07:59:15.837Z,0.00
2023-01-19T08:01:42.523Z,0.00
2023-01-19T08:04:10.441Z,0.00
2023-01-19T08:06:37.022Z,0.00
2023-01-19T08:09:05.541Z,0.00
2023-01-19T08:11:32.120Z,0.00
2023-01-19T08:13:58.743Z,0.00
2023-01-19T08:16:25.278Z,0.10
2023-01-19T08:18:51.765Z,0.10
2023-01-19T08:21:18.324Z,0.10
2023-01-19T08:23:45.672Z,0.20
2023-01-19T08:26:12.216Z,0.20
2023-01-19T08:28:38.737Z,0.20
2023-01-19T08:31:18.749Z,0.20
2023-01-19T08:33:46.819Z,0.30
2023-01-19T08:36:13.345Z,0.30
2023-01-19T08:38:43.402Z,0.40
2023-01-19T08:41:09.881Z,0.40
2023-01-19T08:43:36.354Z,0.40
2023-01-19T08:46:03.585Z,0.40
2023-01-19T08:48:30.140Z,0.40
2023-01-19T08:50:56.638Z,0.40
2023-01-19T08:53:23.603Z,0.40
2023-01-19T08:55:50.195Z,0.40
2023-01-19T08:58:17.134Z,0.40
2023-01-19T09:00:43.672Z,0.40
2023-01-19T09:03:10.230Z,0.40
2023-01-19T09:05:38.572Z,0.40
2023-01-19T09:08:05.092Z,0.30
2023-01-19T09:10:35.703Z,0.40
2023-01-19T09:13:04.151Z,0.30
2023-01-19T09:15:30.652Z,0.40
2023-01-19T09:17:57.183Z,0.40
2023-01-19T09:20:23.678Z,0.40
2023-01-19T09:22:50.186Z,0.40
2023-01-19T09:25:16.721Z,0.50
2023-01-19T09:27:43.227Z,0.50
2023-01-19T09:30:11.361Z,0.60
2023-01-19T09:32:37.871Z,0.60
2023-01-19T09:35:04.372Z,0.60
2023-01-19T09:37:30.913Z,0.60
2023-01-19T09:39:57.471Z,0.70
2023-01-19T09:42:24.536Z,0.70
2023-01-19T09:44:53.043Z,0.70
2023-01-19T09:47:19.526Z,0.80
2023-01-19T09:49:46.094Z,0.80
2023-01-19T09:52:12.604Z,0.80
2023-01-19T09:54:40.926Z,0.80
2023-01-19T09:57:07.469Z,0.90
2023-01-19T09:59:34.007Z,0.90
2023-01-19T10:02:00.614Z,0.90
2023-01-19T10:04:27.156Z,0.90
2023-01-19T10:06:53.634Z,0.90
2023-01-19T10:09:20.144Z,0.90
2023-01-19T10:11:53.739Z,0.90
2023-01-19T10:14:20.308Z,0.90
2023-01-19T10:16:46.794Z,0.90
2023-01-19T10:19:13.335Z,0.90
2023-01-19T10:21:39.809Z,0.90
2023-01-19T10:24:06.357Z,0.90
2023-01-19T10:26:39.010Z,0.90
2023-01-19T10:29:05.565Z,0.90
2023-01-19T10:31:32.151Z,0.90
2023-01-19T10:33:58.738Z,0.90
2023-01-19T10:36:25.752Z,0.90
2023-01-19T10:38:52.376Z,1.00
2023-01-19T10:41:18.954Z,1.00
2023-01-19T10:43:45.630Z,1.00
2023-01-19T10:46:12.220Z,1.00
2023-01-19T10:48:38.787Z,1.00
2023-01-19T10:51:05.341Z,1.00
2023-01-19T10:53:31.919Z,1.00
2023-01-19T10:55:58.430Z,1.10
2023-01-19T10:58:25.064Z,1.10
2023-01-19T11:00:51.764Z,1.10
2023-01-19T11:03:18.451Z,1.10
2023-01-19T11:05:45.138Z,1.20
2023-01-19T11:08:11.652Z,1.20
2023-01-19T11:10:38.136Z,1.20
2023-01-19T11:13:07.376Z,1.20
2023-01-19T11:15:34.686Z,1.20
2023-01-19T11:18:01.221Z,1.20
2023-01-19T11:20:27.712Z,1.20
2023-01-19T11:22:54.188Z,1.20
2023-01-19T11:25:20.732Z,1.10
2023-01-19T11:27:47.245Z,1.10
2023-01-19T11:30:13.766Z,1.10
2023-01-19T11:32:41.098Z,1.10
2023-01-19T11:35:07.589Z,1.10
2023-01-19T11:37:34.508Z,1.10
2023-01-19T11:40:02.532Z,1.10
2023-01-19T11:42:29.058Z,1.10
2023-01-19T11:44:55.715Z,1.00
2023-01-19T11:47:22.198Z,1.00
2023-01-19T11:49:48.740Z,1.00
2023-01-19T11:52:15.234Z,1.00
2023-01-19T11:54:41.764Z,1.00
2023-01-19T11:57:08.258Z,1.10
2023-01-19T11:59:34.752Z,1.10
2023-01-19T12:02:01.359Z,1.00
2023-01-19T12:04:28.001Z,1.00
2023-01-19T12:06:54.472Z,1.00
2023-01-19T12:09:21.031Z,1.00
2023-01-19T12:11:47.533Z,0.90
2023-01-19T12:14:14.090Z,0.90
2023-01-19T12:16:40.895Z,0.90
2023-01-19T12:19:07.521Z,0.90
2023-01-19T12:21:34.060Z,0.90
2023-01-19T12:24:01.358Z,1.00
2023-01-19T12:26:28.006Z,1.00
2023-01-19T12:28:54.533Z,1.00
2023-01-19T12:31:21.116Z,1.10
2023-01-19T12:33:47.701Z,1.10
2023-01-19T12:36:14.478Z,1.20
2023-01-19T12:38:41.044Z,1.20
2023-01-19T12:41:07.663Z,1.10
2023-01-19T12:43:34.138Z,1.20
2023-01-19T12:46:00.711Z,1.20
2023-01-19T12:48:27.228Z,1.30
2023-01-19T12:50:53.923Z,1.30
2023-01-19T12:53:20.499Z,1.40
2023-01-19T12:55:47.462Z,1.50
2023-01-19T12:58:14.487Z,1.50
2023-01-19T13:00:41.049Z,1.50
2023-01-19T13:03:07.563Z,1.50
2023-01-19T13:05:34.058Z,1.50
2023-01-19T13:08:00.805Z,1.50
2023-01-19T13:10:27.389Z,1.50
2023-01-19T13:12:53.878Z,1.50
2023-01-19T13:15:20.453Z,1.50
2023-01-19T13:17:49.056Z,1.50
2023-01-19T13:20:16.460Z,1.40
2023-01-19T13:22:42.986Z,1.40
2023-01-19T13:25:09.553Z,1.40
2023-01-19T13:27:36.071Z,1.40
2023-01-19T13:30:02.877Z,1.40
2023-01-19T13:32:29.601Z,1.40
2023-01-19T13:35:01.737Z,1.40
2023-01-19T13:37:28.503Z,1.40
2023-01-19T13:39:55.081Z,1.40
2023-01-19T13:42:21.568Z,1.40
2023-01-19T13:44:52.174Z,1.40
2023-01-19T13:47:18.644Z,1.40
2023-01-19T13:49:45.163Z,1.40
2023-01-19T13:52:12.691Z,1.40
2023-01-19T13:54:39.231Z,1.40
2023-01-19T13:57:05.724Z,1.40
2023-01-19T13:59:32.520Z,1.40
2023-01-19T14:01:59.158Z,1.40
2023-01-19T14:04:25.794Z,1.40
2023-01-19T14:06:55.565Z,1.50
2023-01-19T14:09:22.114Z,1.50
2023-01-19T14:11:48.663Z,1.60
2023-01-19T14:14:15.156Z,1.70
2023-01-19T14:16:41.691Z,1.70
2023-01-19T14:19:08.168Z,1.70
2023-01-19T14:21:34.712Z,1.80
2023-01-19T14:24:01.188Z,1.80
2023-01-19T14:26:28.073Z,1.90
2023-01-19T14:28:54.596Z,1.90
2023-01-19T14:31:21.247Z,1.90
2023-01-19T14:33:47.827Z,1.90
2023-01-19T14:36:16.213Z,1.90
2023-01-19T14:38:44.512Z,1.90
2023-01-19T14:41:11.091Z,2.00
2023-01-19T14:43:37.583Z,2.00
2023-01-19T14:46:04.093Z,2.00
2023-01-19T14:48:31.136Z,1.90
2023-01-19T14:51:03.275Z,1.90
2023-01-19T14:53:30.186Z,1.90
2023-01-19T14:55:56.704Z,1.80
2023-01-19T14:58:23.187Z,1.80
2023-01-19T15:00:49.867Z,1.70
2023-01-19T15:03:16.480Z,1.70
2023-01-19T15:05:43.117Z,1.70
2023-01-19T15:08:09.636Z,1.60
2023-01-19T15:10:36.316Z,1.60
2023-01-19T15:13:02.793Z,1.60
2023-01-19T15:15:29.302Z,1.60
2023-01-19T15:17:56.407Z,1.50
2023-01-19T15:20:23.172Z,1.50
2023-01-19T15:22:49.703Z,1.40
2023-01-19T15:25:16.266Z,1.40
2023-01-19T15:27:42.798Z,1.40
2023-01-19T15:30:09.304Z,1.40
2023-01-19T15:32:35.803Z,1.40
2023-01-19T15:35:02.303Z,1.30
2023-01-19T15:37:28.841Z,1.30
2023-01-19T15:39:55.365Z,1.30
2023-01-19T15:42:21.996Z,1.30
2023-01-19T15:44:48.550Z,1.30
2023-01-19T15:47:15.077Z,1.30
2023-01-19T15:49:41.680Z,1.30
2023-01-19T15:52:08.178Z,1.20
2023-01-19T15:54:34.691Z,1.20
2023-01-19T15:57:01.187Z,1.20
2023-01-19T15:59:27.666Z,1.20
2023-01-19T16:01:54.454Z,1.20
2023-01-19T16:04:21.107Z,1.10
2023-01-19T16:06:47.633Z,1.10
2023-01-19T16:09:18.324Z,1.10
2023-01-19T16:11:44.837Z,1.10
2023-01-19T16:14:11.439Z,1.00
2023-01-19T16:16:38.270Z,1.00
2023-01-19T16:19:04.843Z,1.00
2023-01-19T16:21:36.798Z,1.00
2023-01-19T16:24:03.330Z,1.00
2023-01-19T16:26:29.930Z,1.00
2023-01-19T16:28:56.445Z,1.00
2023-01-19T16:31:23.051Z,1.00
2023-01-19T16:33:49.643Z,1.00
2023-01-19T16:36:16.121Z,1.00
2023-01-19T16:38:42.599Z,1.00
2023-01-19T16:41:09.084Z,1.00
2023-01-19T16:43:35.626Z,1.00
2023-01-19T16:46:02.523Z,1.00
2023-01-19T16:48:29.137Z,1.00
2023-01-19T16:50:55.655Z,1.00
2023-01-19T16:53:22.144Z,1.00
2023-01-19T16:55:48.657Z,1.00
2023-01-19T16:58:15.141Z,1.00
2023-01-19T17:00:41.637Z,0.90
2023-01-19T17:03:08.361Z,0.90
2023-01-19T17:05:34.835Z,0.90
2023-01-19T17:08:01.349Z,1.00
2023-01-19T17:10:27.819Z,0.90
2023-01-19T17:12:54.340Z,0.90
2023-01-19T17:15:20.859Z,0.90
2023-01-19T17:17:47.375Z,0.90
2023-01-19T17:20:14.208Z,0.90
2023-01-19T17:22:40.965Z,0.90
2023-01-19T17:25:07.438Z,0.80
2023-01-19T17:27:35.792Z,0.80
2023-01-19T17:30:02.247Z,0.80
2023-01-19T17:32:28.779Z,0.70
2023-01-19T17:34:55.245Z,0.70
2023-01-19T17:37:21.705Z,0.60
2023-01-19T17:39:48.313Z,0.70
2023-01-19T17:42:14.846Z,0.60
2023-01-19T17:44:42.329Z,0.60
2023-01-19T17:47:08.801Z,0.50
2023-01-19T17:49:35.334Z,0.50
2023-01-19T17:52:02.053Z,0.50
2023-01-19T17:54:28.560Z,0.40
2023-01-19T17:56:56.057Z,0.40
2023-01-19T17:59:22.542Z,0.30
2023-01-19T18:01:49.117Z,0.30
2023-01-19T18:04:15.663Z,0.30
2023-01-19T18:06:42.210Z,0.20
2023-01-19T18:09:08.709Z,0.20
2023-01-19T18:11:35.205Z,0.20
2023-01-19T18:14:02.037Z,0.20
2023-01-19T18:16:28.518Z,0.20
2023-01-19T18:18:55.038Z,0.10
2023-01-19T18:21:21.701Z,0.10
2023-01-19T18:23:48.180Z,0.20
2023-01-19T18:26:14.705Z,0.20
2023-01-19T18:28:41.235Z,0.20
2023-01-19T18:31:07.804Z,0.20
2023-01-19T18:33:49.651Z,0.20
2023-01-19T18:36:16.295Z,0.20
2023-01-19T18:38:42.947Z,0.10
2023-01-19T18:41:09.505Z,0.20
2023-01-19T18:43:36.154Z,0.20
2023-01-19T18:46:02.689Z,0.10
2023-01-19T18:48:29.198Z,0.10
2023-01-19T18:50:55.829Z,0.10
2023-01-19T18:53:22.372Z,0.10
2023-01-19T18:55:50.601Z,0.10
2023-01-19T18:58:18.319Z,0.00
2023-01-19T19:00:44.884Z,0.00
2023-01-19T19:03:11.410Z,0.00
2023-01-19T19:05:38.048Z,-0.10
2023-01-19T19:08:04.755Z,-0.10
2023-01-19T19:10:31.298Z,-0.10
2023-01-19T19:12:57.834Z,-0.10
2023-01-19T19:15:24.444Z,-0.10
2023-01-19T19:17:50.981Z,-0.10
2023-01-19T19:20:17.558Z,-0.10
2023-01-19T19:22:44.077Z,-0.10
2023-01-19T19:25:10.566Z,-0.10
2023-01-19T19:27:37.169Z,-0.10
2023-01-19T19:30:03.664Z,-0.10
2023-01-19T19:32:30.239Z,-0.10
2023-01-19T19:34:58.714Z,-0.10
2023-01-19T19:37:25.192Z,-0.10
2023-01-19T19:39:51.839Z,-0.20
2023-01-19T19:42:18.302Z,-0.20
2023-01-19T19:44:44.823Z,-0.20
2023-01-19T19:47:11.298Z,-0.20
2023-01-19T19:49:37.800Z,-0.20
2023-01-19T19:52:04.273Z,-0.20
2023-01-19T19:54:30.780Z,-0.20
2023-01-19T19:56:57.299Z,-0.20
2023-01-19T19:59:23.813Z,-0.20
2023-01-19T20:01:52.143Z,-0.20
2023-01-19T20:04:21.032Z,-0.10
2023-01-19T20:06:48.274Z,-0.20
2023-01-19T20:09:15.034Z,-0.20
2023-01-19T20:11:41.549Z,-0.30
2023-01-19T20:14:08.055Z,-0.20
2023-01-19T20:16:34.802Z,-0.30
2023-01-19T20:19:01.343Z,-0.30
2023-01-19T20:21:27.861Z,-0.30
2023-01-19T20:23:54.331Z,-0.30
2023-01-19T20:26:20.834Z,-0.30
2023-01-19T20:28:47.592Z,-0.30
2023-01-19T20:31:14.156Z,-0.30
2023-01-19T20:33:40.772Z,-0.30
2023-01-19T20:36:07.322Z,-0.20
2023-01-19T20:38:33.803Z,-0.10
2023-01-19T20:41:00.291Z,-0.10
2023-01-19T20:43:26.786Z,-0.10
2023-01-19T20:45:53.473Z,0.00
2023-01-19T20:48:19.973Z,0.00
2023-01-19T20:50:46.506Z,-0.10
2023-01-19T20:53:12.994Z,-0.10
2023-01-19T20:55:39.471Z,-0.10
2023-01-19T20:58:05.964Z,-0.10
2023-01-19T21:00:32.484Z,-0.20
2023-01-19T21:02:59.075Z,-0.20
2023-01-19T21:05:25.684Z,-0.20
2023-01-19T21:07:52.162Z,-0.30
2023-01-19T21:10:18.755Z,-0.30
2023-01-19T21:12:45.303Z,-0.30
2023-01-19T21:15:12.123Z,-0.30
2023-01-19T21:17:38.773Z,-0.30
2023-01-19T21:20:05.257Z,-0.30
2023-01-19T21:22:31.870Z,-0.40
2023-01-19T21:24:58.370Z,-0.40
2023-01-19T21:27:24.839Z,-0.30
2023-01-19T21:29:51.344Z,-0.30
2023-01-19T21:32:17.812Z,-0.30
2023-01-19T21:34:44.419Z,-0.30
2023-01-19T21:37:10.887Z,-0.30
2023-01-19T21:39:37.361Z,-0.30
2023-01-19T21:42:03.859Z,-0.30
2023-01-19T21:44:30.319Z,-0.30
2023-01-19T21:46:57.254Z,-0.30
2023-01-19T21:49:23.713Z,-0.30
2023-01-19T21:51:50.677Z,-0.30
2023-01-19T21:54:17.263Z,-0.30
2023-01-19T21:56:43.763Z,-0.30
2023-01-19T21:59:10.276Z,-0.30
2023-01-19T22:01:36.837Z,-0.30
2023-01-19T22:04:03.361Z,-0.30
2023-01-19T22:06:30.118Z,-0.40
2023-01-19T22:08:57.779Z,-0.40
2023-01-19T22:11:24.792Z,-0.40
2023-01-19T22:13:51.322Z,-0.30
2023-01-19T22:16:17.858Z,-0.30
2023-01-19T22:18:44.353Z,-0.30
2023-01-19T22:21:10.925Z,-0.20
2023-01-19T22:23:37.490Z,-0.20
2023-01-19T22:26:04.221Z,-0.20
2023-01-19T22:28:30.752Z,-0.20
2023-01-19T22:30:57.353Z,-0.20
2023-01-19T22:33:23.947Z,-0.20
2023-01-19T22:35:50.467Z,-0.20
2023-01-19T22:38:16.956Z,-0.10
2023-01-19T22:40:43.475Z,-0.10
2023-01-19T22:43:09.974Z,0.00
2023-01-19T22:45:36.468Z,-0.10
2023-01-19T22:48:03.012Z,-0.10
2023-01-19T22:50:29.523Z,-0.10
2023-01-19T22:52:56.677Z,-0.10
2023-01-19T22:55:23.153Z,-0.10
2023-01-19T22:57:49.699Z,-0.10
2023-01-19T23:00:16.188Z,-0.20
2023-01-19T23:02:42.700Z,-0.20
2023-01-19T23:05:09.238Z,-0.20
2023-01-19T23:07:35.824Z,-0.10
2023-01-19T23:10:02.325Z,-0.20
2023-01-19T23:12:28.897Z,-0.20
2023-01-19T23:14:55.400Z,-0.20
2023-01-19T23:17:21.877Z,-0.20
2023-01-19T23:19:48.369Z,-0.20
2023-01-19T23:22:15.019Z,-0.20
2023-01-19T23:24:41.636Z,-0.20
2023-01-19T23:27:08.146Z,-0.20
2023-01-19T23:29:34.641Z,-0.30
2023-01-19T23:32:03.489Z,-0.30
2023-01-19T23:34:29.967Z,-0.30
2023-01-19T23:36:56.809Z,-0.30
2023-01-19T23:39:23.301Z,-0.30
2023-01-19T23:41:49.798Z,-0.30
2023-01-19T23:44:17.018Z,-0.30
2023-01-19T23:46:43.902Z,-0.40
2023-01-19T23:49:10.432Z,-0.30
2023-01-19T23:51:36.925Z,-0.40
2023-01-19T23:54:03.615Z,-0.40
2023-01-19T23:56:30.208Z,-0.40
2023-01-19T23:58:56.744Z,-0.40
